createdAt,value
2023-01-06T00:01:47.619Z,1.50
2023-01-06T00:04:19.753Z,1.50
2023-01-06T00:06:51.657Z,1.60
2023-01-06T00:09:23.472Z,1.80
2023-01-06T00:11:55.345Z,1.50
2023-01-06T00:14:27.478Z,1.40
2023-01-06T00:16:59.614Z,1.90
2023-01-06T00:19:31.482Z,1.70
2023-01-06T00:22:03.353Z,1.70
2023-01-06T00:24:35.273Z,1.80
2023-01-06T00:27:07.192Z,1.60
2023-01-06T00:29:39.077Z,1.70
2023-01-06T00:32:10.854Z,1.90
2023-01-06T00:34:43.069Z,1.90
2023-01-06T00:37:14.968Z,1.80
2023-01-06T00:39:46.814Z,2.00
2023-01-06T00:42:18.618Z,2.40
2023-01-06T00:44:50.839Z,1.80
2023-01-06T00:47:22.737Z,2.10
2023-01-06T00:49:55.062Z,2.40
2023-01-06T00:52:26.856Z,1.90
2023-01-06T00:54:58.750Z,2.00
2023-01-06T00:57:30.564Z,1.80
2023-01-06T01:00:02.673Z,2.00
2023-01-06T01:02:34.761Z,1.70
2023-01-06T01:05:09.477Z,2.10
2023-01-06T01:07:41.813Z,2.10
2023-01-06T01:10:18.330Z,2.10
2023-01-06T01:12:50.145Z,2.10
2023-01-06T01:15:22.612Z,2.20
2023-01-06T01:17:54.347Z,2.40
2023-01-06T01:20:32.866Z,2.70
2023-01-06T01:23:04.661Z,2.50
2023-01-06T01:25:36.543Z,3.00
2023-01-06T01:28:08.912Z,2.70
2023-01-06T01:30:40.849Z,3.20
2023-01-06T01:33:12.764Z,3.60
2023-01-06T01:35:44.726Z,3.70
2023-01-06T01:38:16.556Z,3.40
2023-01-06T01:40:51.565Z,5.50
2023-01-06T01:43:23.478Z,6.50
2023-01-06T01:45:57.024Z,6.30
2023-01-06T01:48:32.473Z,7.20
2023-01-06T01:51:06.530Z,8.10
2023-01-06T01:53:45.088Z,7.20
2023-01-06T01:56:22.188Z,4.20
2023-01-06T01:58:59.464Z,4.50
2023-01-06T02:01:32.682Z,4.40
2023-01-06T02:04:05.738Z,3.50
2023-01-06T02:06:37.627Z,4.10
2023-01-06T02:09:13.189Z,4.00
2023-01-06T02:11:47.533Z,3.10
2023-01-06T02:14:22.402Z,3.60
2023-01-06T02:17:06.962Z,2.70
2023-01-06T02:20:13.481Z,2.60
2023-01-06T02:23:11.303Z,2.60
2023-01-06T02:26:03.330Z,2.50
2023-01-06T02:29:05.786Z,2.80
2023-01-06T02:31:54.920Z,2.40
2023-01-06T02:34:39.949Z,3.00
2023-01-06T02:37:25.064Z,2.30
2023-01-06T02:40:13.379Z,2.30
2023-01-06T02:42:52.981Z,2.10
2023-01-06T02:45:30.770Z,1.90
2023-01-06T02:48:08.686Z,1.90
2023-01-06T02:50:46.455Z,2.00
2023-01-06T02:53:24.067Z,2.20
2023-01-06T02:55:58.250Z,2.00
2023-01-06T02:58:35.253Z,2.30
2023-01-06T03:01:12.619Z,2.10
2023-01-06T03:03:48.964Z,2.40
2023-01-06T03:06:25.300Z,2.40
2023-01-06T03:08:58.449Z,2.40
2023-01-06T03:11:33.098Z,2.00
2023-01-06T03:14:10.408Z,2.70
2023-01-06T03:16:42.357Z,2.80
2023-01-06T03:19:14.522Z,3.00
2023-01-06T03:21:47.997Z,2.80
2023-01-06T03:24:20.276Z,2.60
2023-01-06T03:26:54.069Z,3.00
2023-01-06T03:29:26.213Z,3.10
2023-01-06T03:32:05.006Z,2.80
2023-01-06T03:34:51.764Z,2.80
2023-01-06T03:37:33.525Z,2.70
2023-01-06T03:40:14.865Z,2.80
2023-01-06T03:43:10.959Z,2.50
2023-01-06T03:46:12.936Z,3.40
2023-01-06T03:48:54.158Z,2.90
2023-01-06T03:54:11.380Z,2.70
2023-01-06T03:56:48.280Z,3.40
2023-01-06T03:59:25.108Z,2.80
2023-01-06T04:01:57.976Z,3.10
2023-01-06T04:04:29.908Z,3.00
2023-01-06T04:07:01.812Z,3.20
2023-01-06T04:09:33.899Z,3.70
2023-01-06T04:12:23.816Z,3.20
2023-01-06T04:14:55.678Z,3.20
2023-01-06T04:17:27.485Z,3.40
2023-01-06T04:19:59.481Z,3.10
2023-01-06T04:22:31.405Z,2.60
2023-01-06T04:25:03.580Z,2.90
2023-01-06T04:27:35.450Z,2.80
2023-01-06T04:30:14.110Z,2.70
2023-01-06T04:32:46.557Z,3.10
2023-01-06T04:35:18.555Z,2.80
2023-01-06T04:37:50.326Z,3.30
2023-01-06T04:40:28.391Z,4.10
2023-01-06T04:43:06.485Z,4.10
2023-01-06T04:45:41.224Z,3.80
2023-01-06T04:48:13.762Z,3.70
2023-01-06T04:50:45.648Z,3.70
2023-01-06T04:53:17.431Z,3.30
2023-01-06T04:55:49.227Z,3.70
2023-01-06T04:58:21.064Z,3.80
2023-01-06T05:00:52.895Z,4.30
2023-01-06T05:03:24.757Z,4.30
2023-01-06T05:05:56.638Z,4.30
2023-01-06T05:08:28.743Z,3.80
2023-01-06T05:11:04.301Z,4.10
2023-01-06T05:13:36.363Z,4.10
2023-01-06T05:16:12.146Z,4.30
2023-01-06T05:18:44.693Z,4.90
2023-01-06T05:21:16.840Z,4.90
2023-01-06T05:23:48.846Z,6.60
2023-01-06T05:26:22.724Z,7.90
2023-01-06T05:28:54.716Z,5.60
2023-01-06T05:31:26.978Z,4.70
2023-01-06T05:33:58.751Z,4.30
2023-01-06T05:36:30.665Z,4.60
2023-01-06T05:39:02.461Z,4.10
2023-01-06T05:41:34.324Z,4.40
2023-01-06T05:44:06.501Z,4.40
2023-01-06T05:46:38.612Z,4.10
2023-01-06T05:49:11.805Z,5.00
2023-01-06T05:51:43.677Z,4.60
2023-01-06T05:54:16.953Z,3.60
2023-01-06T05:56:48.827Z,3.70
2023-01-06T05:59:20.648Z,4.40
2023-01-06T06:01:52.616Z,4.00
2023-01-06T06:04:24.559Z,4.20
2023-01-06T06:06:56.434Z,5.00
2023-01-06T06:09:28.824Z,5.60
2023-01-06T06:12:00.655Z,4.60
2023-01-06T06:14:32.524Z,4.10
2023-01-06T06:17:04.368Z,4.90
2023-01-06T06:19:36.355Z,4.50
2023-01-06T06:22:10.469Z,4.80
2023-01-06T06:24:42.509Z,4.50
2023-01-06T06:27:14.327Z,4.30
2023-01-06T06:29:46.058Z,4.40
2023-01-06T06:32:17.943Z,5.10
2023-01-06T06:34:50.019Z,5.70
2023-01-06T06:37:21.949Z,5.60
2023-01-06T06:39:53.781Z,6.20
2023-01-06T06:42:25.588Z,5.30
2023-01-06T06:44:57.358Z,5.60
2023-01-06T06:47:29.435Z,5.50
2023-01-06T06:50:01.197Z,5.40
2023-01-06T06:52:33.314Z,5.00
2023-01-06T06:55:05.458Z,4.40
2023-01-06T06:57:37.284Z,4.00
2023-01-06T07:00:16.221Z,3.80
2023-01-06T07:02:50.307Z,4.40
2023-01-06T07:05:22.639Z,4.00
2023-01-06T07:07:54.500Z,3.80
2023-01-06T07:10:30.174Z,3.90
2023-01-06T07:13:03.771Z,4.40
2023-01-06T07:15:36.246Z,3.70
2023-01-06T07:18:09.239Z,4.40
2023-01-06T07:20:41.841Z,3.80
2023-01-06T07:23:13.654Z,4.20
2023-01-06T07:25:45.498Z,5.70
2023-01-06T07:28:17.340Z,9.90
2023-01-06T07:30:49.461Z,9.70
2023-01-06T07:33:22.800Z,9.00
2023-01-06T07:35:57.232Z,9.00
2023-01-06T07:38:29.271Z,7.90
2023-01-06T07:41:03.615Z,7.30
2023-01-06T07:43:35.879Z,5.40
2023-01-06T07:46:07.843Z,4.90
2023-01-06T07:48:39.683Z,5.10
2023-01-06T07:51:11.455Z,4.20
2023-01-06T07:53:43.536Z,4.80
2023-01-06T07:56:15.820Z,4.40
2023-01-06T07:58:48.583Z,4.60
2023-01-06T08:01:20.509Z,4.50
2023-01-06T08:03:52.430Z,5.30
2023-01-06T08:06:24.255Z,5.50
2023-01-06T08:08:56.075Z,4.90
2023-01-06T08:11:29.127Z,5.20
2023-01-06T08:14:01.112Z,5.20
2023-01-06T08:16:32.941Z,4.60
2023-01-06T08:19:06.565Z,5.30
2023-01-06T08:21:38.505Z,4.80
2023-01-06T08:24:12.447Z,5.50
2023-01-06T08:26:44.329Z,5.60
2023-01-06T08:29:16.340Z,6.00
2023-01-06T08:31:48.124Z,6.10
2023-01-06T08:34:20.160Z,5.80
2023-01-06T08:36:52.744Z,6.40
2023-01-06T08:39:24.825Z,6.50
2023-01-06T08:41:56.639Z,6.50
2023-01-06T08:44:29.090Z,6.90
2023-01-06T08:47:00.905Z,6.50
2023-01-06T08:49:32.867Z,6.50
2023-01-06T08:52:05.070Z,6.30
2023-01-06T08:54:36.905Z,6.10
2023-01-06T08:57:09.298Z,6.20
2023-01-06T08:59:41.112Z,5.60
2023-01-06T09:02:13.911Z,5.10
2023-01-06T09:04:45.871Z,5.60
2023-01-06T09:07:17.750Z,5.60
2023-01-06T09:09:49.643Z,5.80
2023-01-06T09:12:21.469Z,6.10
2023-01-06T09:14:53.327Z,6.70
2023-01-06T09:17:25.535Z,7.00
2023-01-06T09:19:57.350Z,6.50
2023-01-06T09:22:29.550Z,6.50
2023-01-06T09:25:01.693Z,6.40
2023-01-06T09:27:33.675Z,6.50
2023-01-06T09:30:14.985Z,5.00
2023-01-06T09:32:46.827Z,5.40
2023-01-06T09:35:18.725Z,4.80
2023-01-06T09:37:50.526Z,4.00
2023-01-06T09:40:40.937Z,3.80
2023-01-06T09:43:27.060Z,3.70
2023-01-06T09:46:02.311Z,4.30
2023-01-06T09:48:38.197Z,4.30
2023-01-06T09:51:15.914Z,5.80
2023-01-06T09:53:53.035Z,4.50
2023-01-06T09:56:27.353Z,5.10
2023-01-06T09:59:07.066Z,5.00
2023-01-06T10:01:46.092Z,4.70
2023-01-06T10:04:22.672Z,5.60
2023-01-06T10:07:02.039Z,5.20
2023-01-06T10:09:43.004Z,5.50
2023-01-06T10:12:28.674Z,5.50
2023-01-06T10:15:13.887Z,5.80
2023-01-06T10:18:02.366Z,5.70
2023-01-06T10:20:53.532Z,6.20
2023-01-06T10:23:38.998Z,5.80
2023-01-06T10:26:14.861Z,6.50
2023-01-06T10:28:53.335Z,6.20
2023-01-06T10:31:29.882Z,6.50
2023-01-06T10:34:03.153Z,5.70
2023-01-06T10:36:40.818Z,6.90
2023-01-06T10:39:17.590Z,6.30
2023-01-06T10:42:17.543Z,6.50
2023-01-06T10:44:49.729Z,6.90
2023-01-06T10:47:27.056Z,7.10
2023-01-06T10:49:59.754Z,6.50
2023-01-06T10:52:33.158Z,6.50
2023-01-06T10:55:18.381Z,6.70
2023-01-06T10:57:51.291Z,6.20
2023-01-06T11:00:26.002Z,6.40
2023-01-06T11:03:19.627Z,7.20
2023-01-06T11:06:07.697Z,8.20
2023-01-06T11:08:40.880Z,7.30
2023-01-06T11:11:27.642Z,7.50
2023-01-06T11:14:03.725Z,7.80
2023-01-06T11:16:37.912Z,7.90
2023-01-06T11:19:24.064Z,8.80
2023-01-06T11:21:55.939Z,7.80
2023-01-06T11:24:29.001Z,7.90
2023-01-06T11:27:03.368Z,8.30
2023-01-06T11:29:36.576Z,9.00
2023-01-06T11:32:18.099Z,8.50
2023-01-06T11:34:56.219Z,7.70
2023-01-06T11:37:37.821Z,7.30
2023-01-06T11:40:22.138Z,7.20
2023-01-06T11:43:04.721Z,7.90
2023-01-06T11:45:40.252Z,8.10
2023-01-06T11:48:18.080Z,8.10
2023-01-06T11:50:58.238Z,9.00
2023-01-06T11:53:31.122Z,9.30
2023-01-06T11:56:04.555Z,8.40
2023-01-06T11:58:59.670Z,9.10
2023-01-06T12:01:38.551Z,9.50
2023-01-06T12:04:18.161Z,9.50
2023-01-06T12:06:53.459Z,10.40
2023-01-06T12:09:33.840Z,10.00
2023-01-06T12:12:12.132Z,9.80
2023-01-06T12:14:43.969Z,10.70
2023-01-06T12:17:19.247Z,11.10
2023-01-06T12:19:56.258Z,9.30
2023-01-06T12:22:37.897Z,9.30
2023-01-06T12:25:17.367Z,8.20
2023-01-06T12:27:53.265Z,8.10
2023-01-06T12:30:36.987Z,8.00
2023-01-06T12:33:17.291Z,8.00
2023-01-06T12:35:52.199Z,8.10
2023-01-06T12:38:40.154Z,9.30
2023-01-06T12:41:18.104Z,9.10
2023-01-06T12:43:57.028Z,10.10
2023-01-06T12:46:35.871Z,11.90
2023-01-06T12:49:14.661Z,12.70
2023-01-06T12:51:51.390Z,15.40
2023-01-06T12:54:29.578Z,16.80
2023-01-06T12:57:12.550Z,15.70
2023-01-06T12:59:59.112Z,15.90
2023-01-06T13:02:51.319Z,14.80
2023-01-06T13:05:35.048Z,14.20
2023-01-06T13:08:21.512Z,12.90
2023-01-06T13:11:00.609Z,12.60
2023-01-06T13:13:50.164Z,12.40
2023-01-06T13:16:27.827Z,11.10
2023-01-06T13:19:11.432Z,10.40
2023-01-06T13:21:44.096Z,11.60
2023-01-06T13:24:34.811Z,10.00
2023-01-06T13:27:28.886Z,10.60
2023-01-06T13:30:30.729Z,9.90
2023-01-06T13:33:38.491Z,9.60
2023-01-06T13:36:38.476Z,10.00
2023-01-06T13:39:14.852Z,9.40
2023-01-06T13:41:50.476Z,9.90
2023-01-06T13:44:25.503Z,9.30
2023-01-06T13:47:09.244Z,10.30
2023-01-06T13:49:42.704Z,10.20
2023-01-06T13:52:20.688Z,9.90
2023-01-06T13:55:21.119Z,11.40
2023-01-06T13:57:53.444Z,11.40
2023-01-06T14:00:28.735Z,11.20
2023-01-06T14:03:26.013Z,12.60
2023-01-06T14:05:59.889Z,12.60
2023-01-06T14:08:35.605Z,14.10
2023-01-06T14:11:25.093Z,15.60
2023-01-06T14:13:59.093Z,16.30
2023-01-06T14:16:46.970Z,12.30
2023-01-06T14:19:24.017Z,14.70
2023-01-06T14:22:14.094Z,15.60
2023-01-06T14:24:52.115Z,14.80
2023-01-06T14:27:54.418Z,14.20
2023-01-06T14:30:36.117Z,15.40
2023-01-06T14:33:31.376Z,14.70
2023-01-06T14:36:11.363Z,13.70
2023-01-06T14:38:47.768Z,14.90
2023-01-06T14:41:25.662Z,15.30
2023-01-06T14:44:03.007Z,14.40
2023-01-06T14:46:44.358Z,16.20
2023-01-06T14:49:20.817Z,14.80
2023-01-06T14:51:55.649Z,13.90
2023-01-06T14:54:31.161Z,13.10
2023-01-06T14:57:06.029Z,13.30
2023-01-06T14:59:37.911Z,12.30
2023-01-06T15:02:17.918Z,12.20
2023-01-06T15:04:58.017Z,11.70
2023-01-06T15:07:30.558Z,11.80
2023-01-06T15:10:28.866Z,13.30
2023-01-06T15:13:00.674Z,12.30
2023-01-06T15:15:34.285Z,12.50
2023-01-06T15:18:08.442Z,12.10
2023-01-06T15:20:44.336Z,12.90
2023-01-06T15:23:18.827Z,12.50
2023-01-06T15:25:53.671Z,12.60
2023-01-06T15:28:30.052Z,13.60
2023-01-06T15:31:03.687Z,13.20
2023-01-06T15:33:40.540Z,14.10
2023-01-06T15:36:19.508Z,15.30
2023-01-06T15:38:52.414Z,16.90
2023-01-06T15:41:38.810Z,18.40
2023-01-06T15:44:26.867Z,18.30
2023-01-06T15:47:10.398Z,18.20
2023-01-06T15:49:45.795Z,18.10
2023-01-06T15:52:26.904Z,17.30
2023-01-06T15:57:36.166Z,16.50
2023-01-06T16:00:37.662Z,16.00
2023-01-06T16:03:18.165Z,17.00
2023-01-06T16:05:57.600Z,16.20
2023-01-06T16:08:32.554Z,16.00
2023-01-06T16:11:47.381Z,18.40
2023-01-06T16:14:43.676Z,20.90
2023-01-06T16:17:19.215Z,20.70
2023-01-06T16:20:00.038Z,18.30
2023-01-06T16:22:37.384Z,16.60
2023-01-06T16:25:27.078Z,14.80
2023-01-06T16:28:01.269Z,15.80
2023-01-06T16:30:36.499Z,16.90
2023-01-06T16:33:22.100Z,16.90
2023-01-06T16:35:55.776Z,17.50
2023-01-06T16:38:27.646Z,15.70
2023-01-06T16:40:59.492Z,15.50
2023-01-06T16:43:31.352Z,15.20
2023-01-06T16:46:11.191Z,15.80
2023-01-06T16:48:43.100Z,14.70
2023-01-06T16:51:19.523Z,15.50
2023-01-06T16:53:51.653Z,15.90
2023-01-06T16:56:25.316Z,16.50
2023-01-06T16:58:59.324Z,18.60
2023-01-06T17:01:31.798Z,20.20
2023-01-06T17:04:03.898Z,19.30
2023-01-06T17:06:35.824Z,18.20
2023-01-06T17:09:18.228Z,18.60
2023-01-06T17:11:51.209Z,18.70
2023-01-06T17:14:24.225Z,18.80
2023-01-06T17:16:56.601Z,19.10
2023-01-06T17:19:30.143Z,19.60
2023-01-06T17:22:05.601Z,20.90
2023-01-06T17:24:37.856Z,19.80
2023-01-06T17:27:22.217Z,20.70
2023-01-06T17:29:54.795Z,20.80
2023-01-06T17:32:36.192Z,22.90
2023-01-06T17:35:25.488Z,22.70
2023-01-06T17:37:59.865Z,23.20
2023-01-06T17:40:38.551Z,22.80
2023-01-06T17:43:21.529Z,23.90
2023-01-06T17:45:53.417Z,25.90
2023-01-06T17:48:25.840Z,24.90
2023-01-06T17:50:59.159Z,22.20
2023-01-06T17:53:52.322Z,20.00
2023-01-06T17:56:24.917Z,25.20
2023-01-06T17:58:59.250Z,25.30
2023-01-06T18:01:32.467Z,24.90
2023-01-06T18:04:09.206Z,20.10
2023-01-06T18:06:44.884Z,17.80
2023-01-06T18:09:19.151Z,19.30
2023-01-06T18:11:52.388Z,20.50
2023-01-06T18:14:29.569Z,22.00
2023-01-06T18:17:07.075Z,23.80
2023-01-06T18:19:39.698Z,24.80
2023-01-06T18:22:18.859Z,27.50
2023-01-06T18:24:52.238Z,33.20
2023-01-06T18:27:27.425Z,31.00
2023-01-06T18:30:16.410Z,26.40
2023-01-06T18:32:49.947Z,21.20
2023-01-06T18:35:24.917Z,17.10
2023-01-06T18:38:00.442Z,14.40
2023-01-06T18:40:32.651Z,11.10
2023-01-06T18:43:18.224Z,10.30
2023-01-06T18:45:55.326Z,9.20
2023-01-06T18:48:33.011Z,8.70
2023-01-06T18:51:14.917Z,6.50
2023-01-06T18:53:47.981Z,6.60
2023-01-06T18:56:23.037Z,6.80
2023-01-06T18:58:57.533Z,6.20
2023-01-06T19:01:39.415Z,6.00
2023-01-06T19:04:19.226Z,6.20
2023-01-06T19:06:53.812Z,6.30
2023-01-06T19:09:30.857Z,6.40
2023-01-06T19:12:11.227Z,7.60
2023-01-06T19:14:44.814Z,8.40
2023-01-06T19:17:36.534Z,8.40
2023-01-06T19:20:16.931Z,7.80
2023-01-06T19:22:49.380Z,8.00
2023-01-06T19:25:31.920Z,7.50
2023-01-06T19:28:06.234Z,6.90
2023-01-06T19:30:42.170Z,8.00
2023-01-06T19:33:34.584Z,7.50
2023-01-06T19:36:39.357Z,6.40
2023-01-06T19:39:34.205Z,7.70
2023-01-06T19:42:17.683Z,7.10
2023-01-06T19:44:54.310Z,5.70
2023-01-06T19:47:28.558Z,5.40
2023-01-06T19:50:16.465Z,6.20
2023-01-06T19:52:48.636Z,6.00
2023-01-06T19:55:26.801Z,6.30
2023-01-06T19:58:00.833Z,7.10
2023-01-06T20:00:43.059Z,6.40
2023-01-06T20:03:29.654Z,6.30
2023-01-06T20:06:01.741Z,6.50
2023-01-06T20:08:33.746Z,6.40
2023-01-06T20:11:05.647Z,6.50
2023-01-06T20:13:37.887Z,5.80
2023-01-06T20:16:12.074Z,6.50
2023-01-06T20:18:44.085Z,7.80
2023-01-06T20:21:15.945Z,7.50
2023-01-06T20:23:47.927Z,7.10
2023-01-06T20:26:20.231Z,7.50
2023-01-06T20:28:52.310Z,5.90
2023-01-06T20:31:24.618Z,7.00
2023-01-06T20:33:56.622Z,6.30
2023-01-06T20:36:28.660Z,6.50
2023-01-06T20:39:00.716Z,6.30
2023-01-06T20:41:32.505Z,6.00
2023-01-06T20:44:04.427Z,7.20
2023-01-06T20:46:36.219Z,7.10
2023-01-06T20:49:08.199Z,6.10
2023-01-06T20:51:39.995Z,6.60
2023-01-06T20:54:11.829Z,6.20
2023-01-06T20:56:43.676Z,6.20
2023-01-06T20:59:15.713Z,5.60
2023-01-06T21:01:47.640Z,6.00
2023-01-06T21:04:19.640Z,5.90
2023-01-06T21:06:51.415Z,6.50
2023-01-06T21:09:28.231Z,6.30
2023-01-06T21:12:00.119Z,6.50
2023-01-06T21:14:32.973Z,6.40
2023-01-06T21:17:05.075Z,6.50
2023-01-06T21:19:36.971Z,6.80
2023-01-06T21:22:08.931Z,6.30
2023-01-06T21:24:40.797Z,6.60
2023-01-06T21:27:12.536Z,7.00
2023-01-06T21:29:44.528Z,6.90
2023-01-06T21:32:16.518Z,6.70
2023-01-06T21:34:48.560Z,7.00
2023-01-06T21:37:20.971Z,6.70
2023-01-06T21:39:52.853Z,7.20
2023-01-06T21:42:42.271Z,7.10
2023-01-06T21:45:15.946Z,6.20
2023-01-06T21:47:48.443Z,6.70
2023-01-06T21:50:27.102Z,6.50
2023-01-06T21:52:59.416Z,6.30
2023-01-06T21:55:31.495Z,6.40
2023-01-06T21:58:03.782Z,6.30
2023-01-06T22:00:35.690Z,6.50
2023-01-06T22:03:07.822Z,7.30
2023-01-06T22:05:39.809Z,7.10
2023-01-06T22:08:12.033Z,7.40
2023-01-06T22:10:45.423Z,7.40
2023-01-06T22:13:21.010Z,8.80
2023-01-06T22:15:53.385Z,9.20
2023-01-06T22:18:25.566Z,9.50
2023-01-06T22:20:59.346Z,9.60
2023-01-06T22:23:33.415Z,11.40
2023-01-06T22:26:05.385Z,10.70
2023-01-06T22:28:37.201Z,11.20
2023-01-06T22:31:09.225Z,11.40
2023-01-06T22:33:41.083Z,10.70
2023-01-06T22:36:13.134Z,10.60
2023-01-06T22:38:45.260Z,9.90
2023-01-06T22:41:17.096Z,9.40
2023-01-06T22:43:48.938Z,10.80
2023-01-06T22:46:21.222Z,10.20
2023-01-06T22:48:53.074Z,11.60
2023-01-06T22:51:24.986Z,11.80
2023-01-06T22:53:57.119Z,11.40
2023-01-06T22:56:29.162Z,11.40
2023-01-06T22:59:00.953Z,11.90
2023-01-06T23:01:33.028Z,11.50
2023-01-06T23:04:04.898Z,9.70
2023-01-06T23:06:36.841Z,10.30
2023-01-06T23:09:08.644Z,11.50
2023-01-06T23:11:41.759Z,10.10
2023-01-06T23:14:14.572Z,9.70
2023-01-06T23:16:46.639Z,9.00
2023-01-06T23:19:19.157Z,9.80
2023-01-06T23:21:50.992Z,11.00
2023-01-06T23:24:22.794Z,10.10
2023-01-06T23:26:54.697Z,11.70
2023-01-06T23:29:26.568Z,11.00
2023-01-06T23:31:58.456Z,10.50
2023-01-06T23:34:30.520Z,10.40
2023-01-06T23:37:02.365Z,10.60
2023-01-06T23:39:34.248Z,11.50
2023-01-06T23:42:08.345Z,10.70
2023-01-06T23:44:40.228Z,10.90
2023-01-06T23:47:14.631Z,11.60
2023-01-06T23:49:48.813Z,11.40
2023-01-06T23:52:20.741Z,11.70
2023-01-06T23:54:52.509Z,11.40
2023-01-06T23:57:24.339Z,11.80
2023-01-06T23:59:56.459Z,11.10
